Terminal Aerodrome Forecast
Issued by NWS

Home | Current Version | Previous Version | Graphics & Text | Print | Product List | Glossary On
Versions: 1 2 3 4 5 6 7 8 9 10 11 12 13 14 15
469
FTUS42 KMHX 041756
TAFOAJ
TAF
KOAJ 041756Z 0418/0518 17008KT P6SM -RA SCT006 BKN020
     FM042000 20008KT 5SM -RA OVC007
     FM050600 33006G14KT 5SM -RA BR OVC004
     FM051100 32007G15KT 6SM BR OVC007
     FM051300 32010G18KT P6SM OVC015
      AMD LTD TO CLD VIS AND WIND=

USA.gov is the U.S. government's official web portal to all federal, state and local government web resources and services.